createdAt,value
2018-11-04T00:01:13.497Z,98491.83
2018-11-04T00:03:42.803Z,98491.53
2018-11-04T00:06:11.854Z,98491.81
2018-11-04T00:08:40.527Z,98494.75
2018-11-04T00:11:09.434Z,98501.82
2018-11-04T00:13:38.573Z,98493.20
2018-11-04T00:16:07.866Z,98493.95
2018-11-04T00:18:37.425Z,98484.26
2018-11-04T00:21:06.372Z,98484.50
2018-11-04T00:23:35.714Z,98476.67
2018-11-04T00:26:04.752Z,98476.71
2018-11-04T00:28:33.682Z,98473.18
2018-11-04T00:31:02.467Z,98471.31
2018-11-04T00:33:31.458Z,98469.95
2018-11-04T00:36:00.273Z,98470.55
2018-11-04T00:38:28.952Z,98471.10
2018-11-04T00:40:58.206Z,98471.06
2018-11-04T00:43:27.387Z,98464.83
2018-11-04T00:45:57.367Z,98462.13
2018-11-04T00:48:26.124Z,98468.30
2018-11-04T00:50:56.023Z,98463.16
2018-11-04T00:53:25.544Z,98470.21
2018-11-04T00:55:55.046Z,98470.99
2018-11-04T00:58:24.728Z,98466.73
2018-11-04T01:00:53.954Z,98465.92
2018-11-04T01:03:23.189Z,98461.63
2018-11-04T01:05:52.285Z,98458.95
2018-11-04T01:08:21.163Z,98454.34
2018-11-04T01:10:49.969Z,98448.94
2018-11-04T01:13:19.071Z,98442.70
2018-11-04T01:15:49.309Z,98446.48
2018-11-04T01:18:18.470Z,98446.45
2018-11-04T01:20:47.414Z,98428.38
2018-11-04T01:23:16.096Z,98429.22
2018-11-04T01:25:45.093Z,98431.37
2018-11-04T01:28:14.647Z,98428.67
2018-11-04T01:30:43.647Z,98420.61
2018-11-04T01:33:13.029Z,98419.27
2018-11-04T01:35:41.731Z,98420.84
2018-11-04T01:38:10.374Z,98412.20
2018-11-04T01:40:39.459Z,98414.09
2018-11-04T01:43:08.752Z,98411.14
2018-11-04T01:45:37.396Z,98407.38
2018-11-04T01:48:06.340Z,98405.46
2018-11-04T01:50:35.501Z,98406.31
2018-11-04T01:53:04.057Z,98397.14
2018-11-04T01:55:32.957Z,98388.22
2018-11-04T01:58:02.077Z,98386.85
2018-11-04T02:00:30.974Z,98379.02
2018-11-04T02:02:59.815Z,98376.84
2018-11-04T02:05:28.796Z,98381.97
2018-11-04T02:07:57.689Z,98375.26
2018-11-04T02:10:27.328Z,98365.27
2018-11-04T02:12:56.144Z,98368.24
2018-11-04T02:15:25.424Z,98362.33
2018-11-04T02:17:54.089Z,98363.16
2018-11-04T02:20:22.834Z,98362.07
2018-11-04T02:22:51.488Z,98361.81
2018-11-04T02:25:20.759Z,98352.91
2018-11-04T02:27:50.851Z,98352.38
2018-11-04T02:30:20.134Z,98359.64
2018-11-04T02:32:49.313Z,98356.41
2018-11-04T02:35:18.500Z,98357.19
2018-11-04T02:37:47.349Z,98365.03
2018-11-04T02:40:16.999Z,98354.22
2018-11-04T02:42:46.493Z,98351.77
2018-11-04T02:45:15.383Z,98340.13
2018-11-04T02:47:44.933Z,98336.91
2018-11-04T02:50:13.834Z,98340.98
2018-11-04T02:52:43.065Z,98343.69
2018-11-04T02:55:12.222Z,98335.58
2018-11-04T02:57:41.533Z,98334.23
2018-11-04T03:00:12.863Z,98335.36
2018-11-04T03:02:44.194Z,98336.69
2018-11-04T03:05:13.215Z,98325.89
2018-11-04T03:07:42.936Z,98327.48
2018-11-04T03:10:13.397Z,98326.64
2018-11-04T03:12:42.209Z,98329.15
2018-11-04T03:15:11.148Z,98324.78
2018-11-04T03:17:40.107Z,98314.49
2018-11-04T03:20:08.775Z,98314.77
2018-11-04T03:22:37.674Z,98312.65
2018-11-04T03:25:07.345Z,98311.05
2018-11-04T03:27:36.183Z,98315.92
2018-11-04T03:30:05.388Z,98306.47
2018-11-04T03:32:35.614Z,98315.13
2018-11-04T03:35:05.204Z,98316.28
2018-11-04T03:37:33.964Z,98319.50
2018-11-04T03:40:03.028Z,98312.43
2018-11-04T03:42:32.469Z,98309.44
2018-11-04T03:45:01.258Z,98308.59
2018-11-04T03:47:30.887Z,98302.09
2018-11-04T03:49:59.999Z,98300.72
2018-11-04T03:52:29.403Z,98290.48
2018-11-04T03:54:58.722Z,98292.64
2018-11-04T03:57:27.493Z,98292.89
2018-11-04T03:59:56.970Z,98290.19
2018-11-04T04:02:27.178Z,98286.97
2018-11-04T04:04:57.340Z,98288.89
2018-11-04T04:07:26.554Z,98290.45
2018-11-04T04:09:55.444Z,98296.09
2018-11-04T04:12:24.164Z,98293.40
2018-11-04T04:14:52.904Z,98291.51
2018-11-04T04:17:22.762Z,98288.00
2018-11-04T04:19:51.667Z,98294.19
2018-11-04T04:22:20.964Z,98289.05
2018-11-04T04:24:49.848Z,98288.24
2018-11-04T04:27:19.469Z,98287.70
2018-11-04T04:29:48.220Z,98280.95
2018-11-04T04:32:17.449Z,98276.41
2018-11-04T04:34:47.143Z,98269.64
2018-11-04T04:37:15.879Z,98272.28
2018-11-04T04:39:45.512Z,98259.61
2018-11-04T04:42:14.159Z,98265.36
2018-11-04T04:44:42.893Z,98254.34
2018-11-04T04:47:11.787Z,98251.65
2018-11-04T04:49:41.379Z,98251.11
2018-11-04T04:52:10.612Z,98252.45
2018-11-04T04:54:39.749Z,98257.56
2018-11-04T04:57:08.948Z,98256.42
2018-11-04T04:59:37.669Z,98258.05
2018-11-04T05:02:07.449Z,98256.70
2018-11-04T05:04:36.957Z,98258.91
2018-11-04T05:07:05.835Z,98262.75
2018-11-04T05:09:37.373Z,98259.77
2018-11-04T05:12:06.664Z,98257.05
2018-11-04T05:14:38.494Z,98254.05
2018-11-04T05:17:07.627Z,98257.02
2018-11-04T05:19:36.989Z,98252.97
2018-11-04T05:22:06.390Z,98245.63
2018-11-04T05:24:35.433Z,98236.95
2018-11-04T05:27:04.787Z,98242.84
2018-11-04T05:29:35.400Z,98236.89
2018-11-04T05:32:06.100Z,98227.14
2018-11-04T05:34:35.164Z,98219.85
2018-11-04T05:37:04.519Z,98217.90
2018-11-04T05:39:33.676Z,98217.66
2018-11-04T05:42:03.127Z,98205.50
2018-11-04T05:44:32.137Z,98212.29
2018-11-04T05:47:01.256Z,98218.77
2018-11-04T05:49:30.156Z,98213.42
2018-11-04T05:51:58.755Z,98207.42
2018-11-04T05:54:27.721Z,98207.70
2018-11-04T05:56:56.309Z,98208.45
2018-11-04T05:59:25.334Z,98203.88
2018-11-04T06:01:54.050Z,98207.42
2018-11-04T06:04:23.010Z,98211.78
2018-11-04T06:06:51.644Z,98217.20
2018-11-04T06:09:20.381Z,98215.02
2018-11-04T06:11:50.636Z,98221.53
2018-11-04T06:14:19.641Z,98226.88
2018-11-04T06:16:48.411Z,98227.44
2018-11-04T06:19:17.208Z,98232.27
2018-11-04T06:21:46.492Z,98233.92
2018-11-04T06:24:15.635Z,98227.17
2018-11-04T06:26:45.044Z,98229.36
2018-11-04T06:29:14.140Z,98229.91
2018-11-04T06:31:43.067Z,98224.23
2018-11-04T06:34:11.689Z,98225.49
2018-11-04T06:36:40.705Z,98230.35
2018-11-04T06:39:09.743Z,98226.52
2018-11-04T06:41:38.657Z,98229.22
2018-11-04T06:44:07.746Z,98213.06
2018-11-04T06:46:36.888Z,98214.95
2018-11-04T06:49:06.137Z,98214.12
2018-11-04T06:51:34.859Z,98209.20
2018-11-04T06:54:05.414Z,98207.21
2018-11-04T06:56:34.180Z,98210.69
2018-11-04T06:59:02.844Z,98215.25
2018-11-04T07:01:31.524Z,98225.49
2018-11-04T07:04:14.603Z,98233.84
2018-11-04T07:06:44.120Z,98243.56
2018-11-04T07:09:14.101Z,98248.67
2018-11-04T07:11:43.041Z,98253.53
2018-11-04T07:14:11.889Z,98247.28
2018-11-04T07:16:41.226Z,98252.42
2018-11-04T07:19:10.335Z,98257.80
2018-11-04T07:21:39.571Z,98257.73
2018-11-04T07:24:08.839Z,98250.95
2018-11-04T07:26:38.108Z,98251.69
2018-11-04T07:29:07.830Z,98251.93
2018-11-04T07:31:37.335Z,98253.79
2018-11-04T07:34:06.652Z,98258.02
2018-11-04T07:36:35.545Z,98252.03
2018-11-04T07:39:07.739Z,98241.73
2018-11-04T07:41:40.295Z,98237.34
2018-11-04T07:44:09.385Z,98235.17
2018-11-04T07:46:38.694Z,98238.65
2018-11-04T07:49:07.463Z,98238.05
2018-11-04T07:51:37.932Z,98240.20
2018-11-04T07:54:07.256Z,98246.97
2018-11-04T07:56:36.407Z,98239.63
2018-11-04T07:59:05.348Z,98241.22
2018-11-04T08:01:33.990Z,98237.47
2018-11-04T08:04:03.017Z,98233.88
2018-11-04T08:06:32.000Z,98229.83
2018-11-04T08:09:00.745Z,98240.30
2018-11-04T08:11:29.875Z,98237.83
2018-11-04T08:13:58.736Z,98232.42
2018-11-04T08:16:27.460Z,98236.17
2018-11-04T08:18:56.219Z,98230.19
2018-11-04T08:21:24.957Z,98221.80
2018-11-04T08:23:53.978Z,98220.10
2018-11-04T08:26:22.859Z,98218.45
2018-11-04T08:28:51.567Z,98219.76
2018-11-04T08:31:21.697Z,98218.09
2018-11-04T08:33:50.901Z,98219.06
2018-11-04T08:36:20.146Z,98216.83
2018-11-04T08:38:49.379Z,98204.56
2018-11-04T08:41:18.621Z,98192.58
2018-11-04T08:43:47.796Z,98200.80
2018-11-04T08:46:17.071Z,98176.41
2018-11-04T08:48:46.764Z,98176.73
2018-11-04T08:51:15.501Z,98185.34
2018-11-04T08:53:44.376Z,98179.39
2018-11-04T08:56:14.007Z,98182.83
2018-11-04T08:58:43.061Z,98184.00
2018-11-04T09:01:12.177Z,98175.75
2018-11-04T09:03:40.962Z,98177.32
2018-11-04T09:06:10.015Z,98175.56
2018-11-04T09:08:39.028Z,98169.23
2018-11-04T09:11:08.435Z,98168.38
2018-11-04T09:13:37.476Z,98167.57
2018-11-04T09:16:06.780Z,98168.06
2018-11-04T09:18:35.889Z,98161.11
2018-11-04T09:21:05.122Z,98163.42
2018-11-04T09:23:34.458Z,98175.80
2018-11-04T09:26:03.549Z,98161.61
2018-11-04T09:28:32.406Z,98165.73
2018-11-04T09:31:01.739Z,98166.48
2018-11-04T09:33:30.452Z,98162.45
2018-11-04T09:36:00.552Z,98155.28
2018-11-04T09:38:29.586Z,98152.22
2018-11-04T09:40:58.456Z,98154.95
2018-11-04T09:43:27.225Z,98162.10
2018-11-04T09:45:56.537Z,98163.02
2018-11-04T09:48:25.632Z,98168.88
2018-11-04T09:50:54.421Z,98156.87
2018-11-04T09:53:24.566Z,98157.23
2018-11-04T09:55:53.388Z,98161.07
2018-11-04T09:58:22.060Z,98166.44
2018-11-04T10:00:50.862Z,98156.08
2018-11-04T10:03:19.925Z,98158.14
2018-11-04T10:05:48.942Z,98155.34
2018-11-04T10:08:18.452Z,98150.73
2018-11-04T10:10:48.636Z,98154.33
2018-11-04T10:13:17.601Z,98143.77
2018-11-04T10:15:47.100Z,98131.83
2018-11-04T10:18:15.939Z,98115.58
2018-11-04T10:20:45.812Z,98113.95
2018-11-04T10:23:14.936Z,98114.69
2018-11-04T10:25:44.022Z,98115.33
2018-11-04T10:28:13.301Z,98105.36
2018-11-04T10:30:42.212Z,98105.47
2018-11-04T10:33:11.215Z,98096.41
2018-11-04T10:35:40.848Z,98088.50
2018-11-04T10:38:10.027Z,98092.28
2018-11-04T10:40:39.465Z,98095.23
2018-11-04T10:43:08.481Z,98089.70
2018-11-04T10:45:37.402Z,98086.09
2018-11-04T10:48:06.333Z,98076.88
2018-11-04T10:50:35.226Z,98067.63
2018-11-04T10:53:04.341Z,98067.50
2018-11-04T10:55:33.296Z,98071.50
2018-11-04T10:58:02.880Z,98063.89
2018-11-04T11:00:37.806Z,98054.56
2018-11-04T11:03:07.278Z,98054.90
2018-11-04T11:05:36.240Z,98050.91
2018-11-04T11:08:05.744Z,98049.22
2018-11-04T11:10:34.786Z,98048.93
2018-11-04T11:13:04.031Z,98049.66
2018-11-04T11:15:32.941Z,98046.06
2018-11-04T11:18:01.608Z,98044.85
2018-11-04T11:20:30.647Z,98047.90
2018-11-04T11:22:59.679Z,98050.61
2018-11-04T11:25:29.145Z,98049.53
2018-11-04T11:27:58.388Z,98057.36
2018-11-04T11:30:27.602Z,98049.34
2018-11-04T11:32:56.890Z,98049.41
2018-11-04T11:35:26.286Z,98041.63
2018-11-04T11:37:55.403Z,98029.70
2018-11-04T11:40:24.456Z,98023.34
2018-11-04T11:42:53.712Z,98015.66
2018-11-04T11:45:22.915Z,98018.23
2018-11-04T11:47:52.275Z,98016.39
2018-11-04T11:50:21.446Z,98014.91
2018-11-04T11:52:50.610Z,98003.84
2018-11-04T11:55:20.153Z,98000.98
2018-11-04T11:57:49.091Z,97996.88
2018-11-04T12:00:17.986Z,97981.93
2018-11-04T12:02:46.801Z,97985.56
2018-11-04T12:05:15.790Z,97989.44
2018-11-04T12:07:44.863Z,97983.41
2018-11-04T12:10:14.368Z,97973.71
2018-11-04T12:12:43.396Z,97971.36
2018-11-04T12:15:13.826Z,97976.70
2018-11-04T12:17:44.128Z,97967.55
2018-11-04T12:20:13.651Z,97972.20
2018-11-04T12:22:43.206Z,97965.92
2018-11-04T12:25:12.947Z,97972.49
2018-11-04T12:27:41.922Z,97966.91
2018-11-04T12:30:14.390Z,97963.48
2018-11-04T12:32:44.199Z,97947.64
2018-11-04T12:35:14.190Z,97946.54
2018-11-04T12:37:44.143Z,97940.80
2018-11-04T12:40:14.212Z,97920.78
2018-11-04T12:42:43.846Z,97920.48
2018-11-04T12:45:14.151Z,97928.14
2018-11-04T12:47:43.626Z,97910.73
2018-11-04T12:50:13.341Z,97919.13
2018-11-04T12:52:42.826Z,97915.58
2018-11-04T12:55:11.943Z,97918.42
2018-11-04T12:57:41.022Z,97914.88
2018-11-04T13:00:13.348Z,97906.21
2018-11-04T13:02:42.607Z,97911.11
2018-11-04T13:05:11.724Z,97902.73
2018-11-04T13:07:40.931Z,97888.85
2018-11-04T13:10:11.623Z,97888.63
2018-11-04T13:12:40.333Z,97880.41
2018-11-04T13:15:12.733Z,97881.20
2018-11-04T13:17:42.927Z,97875.88
2018-11-04T13:20:12.138Z,97871.31
2018-11-04T13:22:41.459Z,97871.11
2018-11-04T13:25:10.886Z,97867.80
2018-11-04T13:27:39.631Z,97868.02
2018-11-04T13:30:11.777Z,97870.62
2018-11-04T13:32:40.989Z,97877.17
2018-11-04T13:35:10.211Z,97876.27
2018-11-04T13:37:39.471Z,97871.77
2018-11-04T13:40:10.181Z,97866.27
2018-11-04T13:42:38.908Z,97871.81
2018-11-04T13:45:09.074Z,97875.19
2018-11-04T13:47:38.541Z,97882.79
2018-11-04T13:50:09.728Z,97868.80
2018-11-04T13:52:38.681Z,97877.16
2018-11-04T13:55:08.167Z,97880.75
2018-11-04T13:57:37.433Z,97875.16
2018-11-04T14:00:08.432Z,97867.35
2018-11-04T14:02:37.382Z,97874.55
2018-11-04T14:05:07.056Z,97872.36
2018-11-04T14:07:36.053Z,97872.97
2018-11-04T14:10:05.306Z,97869.23
2018-11-04T14:12:34.600Z,97866.91
2018-11-04T14:15:03.587Z,97862.88
2018-11-04T14:17:32.483Z,97865.08
2018-11-04T14:20:02.250Z,97859.52
2018-11-04T14:22:31.533Z,97854.45
2018-11-04T14:25:00.637Z,97853.30
2018-11-04T14:27:29.821Z,97844.62
2018-11-04T14:29:58.623Z,97838.91
2018-11-04T14:32:27.247Z,97837.51
2018-11-04T14:34:56.562Z,97829.66
2018-11-04T14:37:25.852Z,97837.36
2018-11-04T14:39:55.073Z,97835.31
2018-11-04T14:42:24.360Z,97834.56
2018-11-04T14:44:53.397Z,97832.81
2018-11-04T14:47:22.744Z,97833.44
2018-11-04T14:49:51.603Z,97828.09
2018-11-04T14:52:20.923Z,97823.40
2018-11-04T14:54:50.139Z,97819.14
2018-11-04T14:57:19.572Z,97821.92
2018-11-04T14:59:48.796Z,97823.38
2018-11-04T15:02:17.889Z,97820.73
2018-11-04T15:04:47.235Z,97818.16
2018-11-04T15:07:16.417Z,97818.83
2018-11-04T15:09:45.591Z,97825.38
2018-11-04T15:12:14.546Z,97832.38
2018-11-04T15:14:43.940Z,97832.00
2018-11-04T15:17:14.217Z,97821.11
2018-11-04T15:19:43.323Z,97819.59
2018-11-04T15:22:12.270Z,97817.18
2018-11-04T15:24:42.037Z,97818.76
2018-11-04T15:27:11.131Z,97818.41
2018-11-04T15:29:40.220Z,97815.22
2018-11-04T15:32:09.113Z,97816.57
2018-11-04T15:34:38.365Z,97807.73
2018-11-04T15:37:06.993Z,97806.83
2018-11-04T15:39:36.184Z,97815.02
2018-11-04T15:42:05.400Z,97808.14
2018-11-04T15:44:34.543Z,97801.62
2018-11-04T15:47:04.047Z,97805.09
2018-11-04T15:49:32.962Z,97798.45
2018-11-04T15:52:02.338Z,97787.41
2018-11-04T15:54:31.641Z,97789.14
2018-11-04T15:57:05.704Z,97791.16
2018-11-04T15:59:34.828Z,97793.09
2018-11-04T16:02:04.112Z,97793.09
2018-11-04T16:04:44.542Z,97791.48
2018-11-04T16:07:02.588Z,97781.34
2018-11-04T16:09:31.695Z,97787.19
2018-11-04T16:12:00.843Z,97791.85
2018-11-04T16:14:30.222Z,97794.30
2018-11-04T16:16:59.358Z,97790.81
2018-11-04T16:19:28.923Z,97795.10
2018-11-04T16:21:57.992Z,97797.63
2018-11-04T16:24:28.302Z,97799.90
2018-11-04T16:26:57.592Z,97795.95
2018-11-04T16:29:27.522Z,97803.45
2018-11-04T16:31:56.388Z,97797.34
2018-11-04T16:34:26.015Z,97788.14
2018-11-04T16:36:55.248Z,97783.63
2018-11-04T16:39:24.442Z,97791.66
2018-11-04T16:41:53.627Z,97797.37
2018-11-04T16:44:23.020Z,97797.56
2018-11-04T16:46:52.142Z,97792.23
2018-11-04T16:49:21.507Z,97788.23
2018-11-04T16:51:51.069Z,97784.28
2018-11-04T16:54:19.811Z,97783.87
2018-11-04T16:56:49.071Z,97783.33
2018-11-04T16:59:18.252Z,97786.48
2018-11-04T17:01:48.388Z,97786.98
2018-11-04T17:04:17.684Z,97780.00
2018-11-04T17:06:46.957Z,97778.88
2018-11-04T17:09:16.100Z,97782.56
2018-11-04T17:11:45.129Z,97780.63
2018-11-04T17:14:14.754Z,97767.92
2018-11-04T17:16:43.748Z,97770.13
2018-11-04T17:19:12.887Z,97776.31
2018-11-04T17:21:42.125Z,97784.23
2018-11-04T17:24:11.534Z,97786.67
2018-11-04T17:26:40.423Z,97780.72
2018-11-04T17:29:10.042Z,97786.27
2018-11-04T17:31:39.171Z,97785.93
2018-11-04T17:34:08.365Z,97775.05
2018-11-04T17:36:37.709Z,97767.37
2018-11-04T17:39:09.227Z,97767.44
2018-11-04T17:41:38.874Z,97768.42
2018-11-04T17:44:09.115Z,97764.55
2018-11-04T17:46:39.210Z,97758.83
2018-11-04T17:49:09.454Z,97772.84
2018-11-04T17:51:38.912Z,97762.83
2018-11-04T17:54:08.512Z,97757.43
2018-11-04T17:56:37.362Z,97756.34
2018-11-04T17:59:06.805Z,97762.55
2018-11-04T18:01:35.657Z,97771.20
2018-11-04T18:04:04.513Z,97764.94
2018-11-04T18:06:33.943Z,97761.13
2018-11-04T18:09:02.937Z,97762.60
2018-11-04T18:11:31.875Z,97764.45
2018-11-04T18:14:00.885Z,97761.25
2018-11-04T18:16:29.957Z,97754.23
2018-11-04T18:18:59.163Z,97758.02
2018-11-04T18:21:28.297Z,97752.86
2018-11-04T18:23:57.163Z,97743.22
2018-11-04T18:26:26.853Z,97739.48
2018-11-04T18:28:56.099Z,97748.36
2018-11-04T18:31:25.399Z,97742.36
2018-11-04T18:33:54.570Z,97742.31
2018-11-04T18:36:24.438Z,97742.85
2018-11-04T18:38:53.923Z,97740.70
2018-11-04T18:41:23.246Z,97735.25
2018-11-04T18:43:52.223Z,97734.80
2018-11-04T18:46:21.656Z,97745.06
2018-11-04T18:48:50.801Z,97739.08
2018-11-04T18:51:19.918Z,97749.12
2018-11-04T18:53:49.236Z,97737.28
2018-11-04T18:56:18.362Z,97732.92
2018-11-04T18:58:48.430Z,97729.23
2018-11-04T19:01:17.899Z,97736.03
2018-11-04T19:03:47.202Z,97745.17
2018-11-04T19:06:17.359Z,97744.67
2018-11-04T19:08:46.477Z,97744.54
2018-11-04T19:11:16.863Z,97743.14
2018-11-04T19:13:45.688Z,97742.09
2018-11-04T19:16:14.939Z,97731.53
2018-11-04T19:18:44.493Z,97732.03
2018-11-04T19:21:14.140Z,97731.70
2018-11-04T19:23:43.782Z,97723.02
2018-11-04T19:26:14.050Z,97719.56
2018-11-04T19:28:43.258Z,97724.06
2018-11-04T19:31:12.656Z,97730.85
2018-11-04T19:33:41.880Z,97727.39
2018-11-04T19:36:10.855Z,97731.20
2018-11-04T19:38:40.578Z,97723.55
2018-11-04T19:41:10.393Z,97725.48
2018-11-04T19:43:40.977Z,97726.20
2018-11-04T19:46:10.954Z,97721.44
2018-11-04T19:48:40.025Z,97727.64
2018-11-04T19:51:10.060Z,97723.41
2018-11-04T19:53:39.278Z,97723.10
2018-11-04T19:56:09.414Z,97727.45
2018-11-04T19:58:38.699Z,97726.46
2018-11-04T20:01:09.049Z,97729.25
2018-11-04T20:03:38.062Z,97721.28
2018-11-04T20:06:07.747Z,97724.33
2018-11-04T20:08:36.666Z,97726.48
2018-11-04T20:11:05.945Z,97723.59
2018-11-04T20:13:40.162Z,97713.70
2018-11-04T20:16:09.302Z,97707.14
2018-11-04T20:18:43.534Z,97703.48
2018-11-04T20:21:12.590Z,97692.20
2018-11-04T20:23:41.722Z,97692.28
2018-11-04T20:26:13.018Z,97688.09
2018-11-04T20:28:42.567Z,97691.44
2018-11-04T20:31:16.519Z,97693.56
2018-11-04T20:33:47.984Z,97698.22
2018-11-04T20:36:20.185Z,97698.77
2018-11-04T20:38:54.434Z,97696.99
2018-11-04T20:41:29.293Z,97693.98
2018-11-04T20:43:59.079Z,97692.56
2018-11-04T20:46:28.224Z,97692.79
2018-11-04T20:49:02.508Z,97687.83
2018-11-04T20:51:31.478Z,97682.20
2018-11-04T20:54:00.781Z,97680.86
2018-11-04T20:56:35.064Z,97678.31
2018-11-04T20:59:04.830Z,97676.46
2018-11-04T21:01:34.274Z,97669.34
2018-11-04T21:04:03.561Z,97665.56
2018-11-04T21:06:33.367Z,97672.88
2018-11-04T21:09:02.648Z,97678.07
2018-11-04T21:11:32.040Z,97670.09
2018-11-04T21:14:01.295Z,97667.67
2018-11-04T21:16:30.605Z,97652.51
2018-11-04T21:18:59.746Z,97655.74
2018-11-04T21:21:28.581Z,97652.34
2018-11-04T21:23:58.263Z,97649.34
2018-11-04T21:26:27.298Z,97644.70
2018-11-04T21:28:56.831Z,97645.31
2018-11-04T21:31:25.766Z,97655.23
2018-11-04T21:33:54.950Z,97649.08
2018-11-04T21:36:26.397Z,97654.48
2018-11-04T21:38:55.753Z,97652.37
2018-11-04T21:41:25.623Z,97659.37
2018-11-04T21:43:55.013Z,97652.30
2018-11-04T21:46:24.049Z,97644.20
2018-11-04T21:48:53.523Z,97652.07
2018-11-04T21:51:22.398Z,97663.73
2018-11-04T21:53:51.575Z,97641.37
2018-11-04T21:56:20.731Z,97647.34
2018-11-04T21:58:49.352Z,97647.14
2018-11-04T22:01:18.562Z,97651.63
2018-11-04T22:03:47.838Z,97653.63
2018-11-04T22:06:16.985Z,97658.51
2018-11-04T22:08:46.070Z,97652.38
2018-11-04T22:11:15.804Z,97651.52
2018-11-04T22:13:44.582Z,97654.30
2018-11-04T22:16:14.895Z,97647.95
2018-11-04T22:18:43.570Z,97645.23
2018-11-04T22:21:12.518Z,97653.34
2018-11-04T22:23:42.177Z,97645.08
2018-11-04T22:26:11.169Z,97644.03
2018-11-04T22:28:41.166Z,97629.48
2018-11-04T22:31:10.154Z,97630.11
2018-11-04T22:33:40.222Z,97628.28
2018-11-04T22:36:09.549Z,97622.95
2018-11-04T22:38:38.276Z,97617.52
2018-11-04T22:41:07.198Z,97615.87
2018-11-04T22:43:36.380Z,97614.48
2018-11-04T22:46:05.700Z,97605.51
2018-11-04T22:48:34.624Z,97615.44
2018-11-04T22:51:03.878Z,97610.06
2018-11-04T22:53:32.940Z,97600.33
2018-11-04T22:56:02.377Z,97597.55
2018-11-04T22:58:31.406Z,97587.98
2018-11-04T23:01:01.220Z,97583.50
2018-11-04T23:03:29.913Z,97591.27
2018-11-04T23:06:02.995Z,97597.59
2018-11-04T23:08:32.861Z,97600.56
2018-11-04T23:11:01.599Z,97596.76
2018-11-04T23:13:30.645Z,97591.80
2018-11-04T23:15:59.543Z,97584.52
2018-11-04T23:18:28.471Z,97582.10
2018-11-04T23:20:57.390Z,97585.28
2018-11-04T23:23:26.483Z,97585.65
2018-11-04T23:25:55.563Z,97582.95
2018-11-04T23:28:24.360Z,97572.45
2018-11-04T23:30:53.299Z,97564.20
2018-11-04T23:33:22.570Z,97577.77
2018-11-04T23:35:51.383Z,97590.76
2018-11-04T23:38:20.169Z,97585.05
2018-11-04T23:40:49.415Z,97580.77
2018-11-04T23:43:18.390Z,97596.20
2018-11-04T23:45:48.835Z,97605.08
2018-11-04T23:48:17.613Z,97596.75
2018-11-04T23:50:46.248Z,97594.67
2018-11-04T23:53:15.515Z,97585.39
2018-11-04T23:55:44.628Z,97581.09
2018-11-04T23:58:13.820Z,97571.41
